Time;durP1;ratioP1;P1;durP2;ratioP2;P2;SDS_P1;SDS_P2;PMS_P1;PMS_P2;Temp;Humidity;BMP_temperature;BMP_pressure;BME280_temperature;BME280_humidity;BME280_pressure;Samples;Min_cycle;Max_cycle;Signal;HPM_P1;HPM_P2
2024/02/16 00:01:29;;;;;;;23.95;12.60;;;;;;;;;;6248149;28;20045;-76
2024/02/16 00:04:31;;;;;;;24.23;13.98;;;;;;;;;;6260923;28;20053;-75
2024/02/16 00:07:34;;;;;;;21.27;10.75;;;;;;;;;;6280462;28;20489;-75
2024/02/16 00:10:36;;;;;;;17.50;10.25;;;;;;;;;;6257022;28;20057;-75
2024/02/16 00:13:39;;;;;;;17.20;10.20;;;;;;;;;;6257077;28;20045;-76
2024/02/16 00:16:42;;;;;;;20.58;10.55;;;;;;;;;;6265921;28;20139;-77
2024/02/16 00:19:44;;;;;;;19.13;10.95;;;;;;;;;;6257840;28;20052;-77
2024/02/16 00:22:46;;;;;;;18.23;10.55;;;;;;;;;;6275787;28;20526;-76
2024/02/16 00:25:49;;;;;;;16.42;9.80;;;;;;;;;;6274221;28;20534;-76
2024/02/16 00:28:52;;;;;;;23.02;9.57;;;;;;;;;;6277495;28;20044;-76
2024/02/16 00:31:55;;;;;;;13.70;9.60;;;;;;;;;;6255373;28;20044;-76
2024/02/16 00:34:57;;;;;;;15.20;10.20;;;;;;;;;;6237128;28;20083;-76
2024/02/16 00:38:00;;;;;;;17.75;10.57;;;;;;;;;;6241582;28;20135;-75
2024/02/16 00:41:03;;;;;;;16.70;10.88;;;;;;;;;;6260771;28;20071;-76
2024/02/16 00:44:05;;;;;;;20.98;10.35;;;;;;;;;;6259976;28;20044;-75
2024/02/16 00:47:10;;;;;;;18.20;10.35;;;;;;;;;;6280019;28;20051;-76
2024/02/16 00:50:12;;;;;;;19.52;11.23;;;;;;;;;;6246902;28;20044;-76
2024/02/16 00:53:14;;;;;;;15.98;10.52;;;;;;;;;;6245840;28;20063;-75
2024/02/16 00:56:17;;;;;;;24.88;12.48;;;;;;;;;;6259325;28;20040;-75
2024/02/16 00:59:21;;;;;;;28.48;13.75;;;;;;;;;;6259914;28;20138;-75
2024/02/16 01:02:24;;;;;;;21.08;10.65;;;;;;;;;;6276620;28;20437;-75
2024/02/16 01:05:30;;;;;;;22.50;13.32;;;;;;;;;;6242796;28;20472;-76
2024/02/16 01:08:33;;;;;;;20.95;11.55;;;;;;;;;;6242177;28;20040;-76
2024/02/16 01:11:35;;;;;;;14.55;10.18;;;;;;;;;;6255021;28;20584;-76
2024/02/16 01:14:37;;;;;;;19.63;11.05;;;;;;;;;;6260157;28;20045;-76
2024/02/16 01:17:39;;;;;;;18.20;11.40;;;;;;;;;;6254478;28;20545;-76
2024/02/16 01:20:41;;;;;;;18.38;10.25;;;;;;;;;;6275958;28;20086;-76
2024/02/16 01:23:44;;;;;;;22.42;10.75;;;;;;;;;;6244908;28;20113;-76
2024/02/16 01:26:47;;;;;;;17.25;11.40;;;;;;;;;;6257300;28;20045;-76
2024/02/16 01:29:49;;;;;;;16.00;9.90;;;;;;;;;;6263862;28;20097;-76
2024/02/16 01:32:52;;;;;;;15.80;8.52;;;;;;;;;;6273346;28;20044;-76
2024/02/16 01:35:54;;;;;;;17.50;9.90;;;;;;;;;;6270667;28;20048;-76
2024/02/16 01:38:57;;;;;;;16.42;8.55;;;;;;;;;;6248063;28;20044;-76
2024/02/16 01:41:59;;;;;;;15.15;10.65;;;;;;;;;;6264100;28;20909;-76
2024/02/16 01:45:02;;;;;;;13.30;8.23;;;;;;;;;;6238364;28;20044;-76
2024/02/16 01:48:05;;;;;;;15.63;9.25;;;;;;;;;;6269085;28;20888;-76
2024/02/16 01:51:09;;;;;;;15.38;9.02;;;;;;;;;;6268693;28;20059;-76
2024/02/16 01:54:12;;;;;;;16.52;10.27;;;;;;;;;;6265864;28;20135;-76
2024/02/16 01:57:14;;;;;;;15.80;10.82;;;;;;;;;;6284906;28;20041;-76
2024/02/16 02:00:17;;;;;;;22.23;14.90;;;;;;;;;;6251528;28;20044;-76
2024/02/16 02:03:22;;;;;;;21.42;9.80;;;;;;;;;;6263996;28;20059;-76
2024/02/16 02:06:25;;;;;;;13.20;8.65;;;;;;;;;;6243023;28;20086;-77
2024/02/16 02:09:27;;;;;;;13.45;7.35;;;;;;;;;;6253653;28;20052;-76
2024/02/16 02:12:30;;;;;;;17.02;9.57;;;;;;;;;;6281269;28;20113;-75
2024/02/16 02:15:32;;;;;;;20.40;9.82;;;;;;;;;;6268705;28;20055;-77
2024/02/16 02:18:38;;;;;;;19.00;8.57;;;;;;;;;;6264183;28;20445;-77
2024/02/16 02:21:41;;;;;;;23.38;9.90;;;;;;;;;;6268410;28;20044;-76
2024/02/16 02:24:45;;;;;;;17.65;10.80;;;;;;;;;;6266379;28;20238;-76
2024/02/16 02:27:47;;;;;;;13.18;8.38;;;;;;;;;;6267700;28;20226;-76
2024/02/16 02:30:49;;;;;;;18.27;9.90;;;;;;;;;;6271526;28;20101;-76
2024/02/16 02:33:51;;;;;;;22.50;12.18;;;;;;;;;;6280158;28;20055;-76
2024/02/16 02:36:55;;;;;;;19.15;8.32;;;;;;;;;;6266569;28;20048;-76
2024/02/16 02:39:57;;;;;;;16.33;10.07;;;;;;;;;;6249203;28;20056;-77
2024/02/16 02:43:01;;;;;;;15.18;9.88;;;;;;;;;;6245913;28;20630;-76
2024/02/16 02:46:03;;;;;;;19.95;9.80;;;;;;;;;;6251224;28;20048;-76
2024/02/16 02:49:05;;;;;;;12.48;8.60;;;;;;;;;;6258166;28;20051;-77
2024/02/16 02:52:08;;;;;;;17.35;9.18;;;;;;;;;;6262933;28;20056;-76
2024/02/16 02:55:11;;;;;;;13.30;7.40;;;;;;;;;;6265352;28;20056;-75
2024/02/16 02:58:13;;;;;;;17.50;9.82;;;;;;;;;;6265957;28;20087;-77
2024/02/16 03:01:16;;;;;;;22.27;10.50;;;;;;;;;;6280238;28;20032;-76
2024/02/16 03:04:19;;;;;;;15.55;9.43;;;;;;;;;;6265177;28;20044;-76
2024/02/16 03:07:23;;;;;;;14.50;9.63;;;;;;;;;;6244411;28;20076;-76
2024/02/16 03:10:25;;;;;;;15.82;8.77;;;;;;;;;;6245367;28;20041;-77
2024/02/16 03:13:27;;;;;;;13.50;10.30;;;;;;;;;;6283796;28;20083;-77
2024/02/16 03:16:31;;;;;;;14.35;8.40;;;;;;;;;;6292293;28;20075;-74
2024/02/16 03:19:36;;;;;;;20.30;8.23;;;;;;;;;;6295244;28;20056;-75
2024/02/16 03:22:38;;;;;;;16.35;10.18;;;;;;;;;;6264259;28;20064;-75
2024/02/16 03:25:40;;;;;;;13.02;8.70;;;;;;;;;;6258021;28;20123;-75
2024/02/16 03:28:48;;;;;;;17.13;9.07;;;;;;;;;;6241205;28;20041;-76
2024/02/16 03:31:51;;;;;;;13.70;8.38;;;;;;;;;;6224953;28;20045;-75
2024/02/16 03:34:54;;;;;;;15.40;9.85;;;;;;;;;;6281574;28;20178;-75
2024/02/16 03:37:56;;;;;;;12.85;7.03;;;;;;;;;;6261335;28;20041;-75
2024/02/16 03:40:59;;;;;;;14.27;8.27;;;;;;;;;;6266289;28;20040;-75
2024/02/16 03:44:01;;;;;;;16.60;9.40;;;;;;;;;;6248424;28;20052;-75
2024/02/16 03:47:03;;;;;;;16.08;7.85;;;;;;;;;;6264443;28;20891;-76
2024/02/16 03:50:07;;;;;;;20.25;10.55;;;;;;;;;;6255567;28;20052;-76
2024/02/16 03:53:11;;;;;;;14.35;7.72;;;;;;;;;;6262945;28;20059;-76
2024/02/16 03:56:19;;;;;;;52.15;22.73;;;;;;;;;;6259402;28;20047;-76
2024/02/16 03:59:23;;;;;;;23.52;11.32;;;;;;;;;;6264096;28;20045;-76
2024/02/16 04:02:25;;;;;;;15.95;9.23;;;;;;;;;;6261779;28;20649;-76
2024/02/16 04:05:32;;;;;;;15.63;11.95;;;;;;;;;;6246308;28;20861;-76
2024/02/16 04:08:34;;;;;;;19.02;9.18;;;;;;;;;;6244250;28;20059;-75
2024/02/16 04:11:36;;;;;;;16.27;8.70;;;;;;;;;;6245062;28;20622;-75
2024/02/16 04:14:39;;;;;;;15.55;9.52;;;;;;;;;;6256535;28;20052;-76
2024/02/16 04:17:41;;;;;;;14.35;8.70;;;;;;;;;;6247205;28;20162;-75
2024/02/16 04:20:44;;;;;;;13.73;7.65;;;;;;;;;;6271547;28;20044;-75
2024/02/16 04:23:46;;;;;;;14.93;7.85;;;;;;;;;;6250205;28;20037;-75
2024/02/16 04:26:48;;;;;;;15.50;8.85;;;;;;;;;;6239774;28;20041;-75
2024/02/16 04:29:51;;;;;;;20.30;10.15;;;;;;;;;;6281266;28;20193;-76
2024/02/16 04:32:53;;;;;;;19.65;10.45;;;;;;;;;;6264695;28;20044;-76
2024/02/16 04:35:55;;;;;;;18.77;8.88;;;;;;;;;;6233521;28;20056;-76
2024/02/16 04:38:58;;;;;;;17.60;9.07;;;;;;;;;;6256408;28;20056;-75
2024/02/16 04:42:00;;;;;;;15.05;9.68;;;;;;;;;;6252455;28;20041;-75
2024/02/16 04:45:02;;;;;;;17.63;10.13;;;;;;;;;;6263789;28;20040;-75
2024/02/16 04:48:08;;;;;;;19.05;9.05;;;;;;;;;;6262040;28;20076;-75
2024/02/16 04:51:11;;;;;;;21.52;10.02;;;;;;;;;;6262069;28;20635;-75
2024/02/16 04:54:14;;;;;;;19.17;10.52;;;;;;;;;;6261184;28;20052;-75
2024/02/16 04:57:16;;;;;;;19.77;10.73;;;;;;;;;;6241798;28;20048;-76
2024/02/16 05:00:18;;;;;;;15.40;9.27;;;;;;;;;;6255790;28;20615;-75
2024/02/16 05:03:20;;;;;;;17.20;9.32;;;;;;;;;;6256579;28;20127;-75
2024/02/16 05:06:23;;;;;;;19.33;7.90;;;;;;;;;;6277815;28;20080;-76
2024/02/16 05:09:26;;;;;;;14.25;9.90;;;;;;;;;;6272735;28;20084;-76
2024/02/16 05:12:29;;;;;;;26.15;10.05;;;;;;;;;;6260491;28;20041;-76
2024/02/16 05:15:31;;;;;;;12.82;8.85;;;;;;;;;;6245165;28;20045;-76
2024/02/16 05:18:34;;;;;;;19.00;9.23;;;;;;;;;;6245015;28;20044;-76
2024/02/16 05:21:36;;;;;;;17.52;8.77;;;;;;;;;;6274744;28;20040;-76
2024/02/16 05:24:40;;;;;;;20.63;12.07;;;;;;;;;;6262067;28;20048;-76
2024/02/16 05:27:42;;;;;;;22.77;9.48;;;;;;;;;;6246513;28;20059;-75
2024/02/16 05:30:45;;;;;;;28.83;15.45;;;;;;;;;;6242908;28;20776;-75
2024/02/16 05:33:49;;;;;;;27.42;16.67;;;;;;;;;;6232005;28;20559;-75
2024/02/16 05:36:51;;;;;;;23.83;12.77;;;;;;;;;;6277569;28;20040;-75
2024/02/16 05:39:56;;;;;;;18.15;8.93;;;;;;;;;;6255741;28;20056;-75
2024/02/16 05:43:00;;;;;;;22.10;10.52;;;;;;;;;;6259554;28;20172;-75
2024/02/16 05:46:02;;;;;;;16.98;10.20;;;;;;;;;;6275697;28;20040;-75
2024/02/16 05:49:05;;;;;;;13.50;7.25;;;;;;;;;;6238318;28;20045;-76
2024/02/16 05:52:20;;;;;;;16.08;8.60;;;;;;;;;;6245158;28;20040;-77
2024/02/16 05:55:24;;;;;;;20.58;10.48;;;;;;;;;;6254277;28;20060;-76
2024/02/16 05:58:26;;;;;;;17.95;8.73;;;;;;;;;;6257031;28;20041;-76
2024/02/16 06:01:29;;;;;;;18.02;8.25;;;;;;;;;;6244636;28;20187;-76
2024/02/16 06:04:32;;;;;;;17.40;11.50;;;;;;;;;;6256497;28;20040;-75
2024/02/16 06:07:37;;;;;;;18.50;11.52;;;;;;;;;;6259501;28;20170;-75
2024/02/16 06:10:41;;;;;;;25.00;10.45;;;;;;;;;;6277769;28;20044;-76
2024/02/16 06:13:43;;;;;;;18.55;12.02;;;;;;;;;;6279794;28;20205;-75
2024/02/16 06:16:51;;;;;;;33.53;20.90;;;;;;;;;;6248478;28;20066;-75
2024/02/16 06:19:53;;;;;;;28.35;16.85;;;;;;;;;;6285365;28;20139;-76
2024/02/16 06:22:56;;;;;;;22.45;14.05;;;;;;;;;;6249818;28;20063;-77
2024/02/16 06:25:59;;;;;;;26.35;12.32;;;;;;;;;;6262038;28;20044;-74
2024/02/16 06:29:02;;;;;;;26.08;12.55;;;;;;;;;;6280994;28;20154;-75
2024/02/16 06:32:05;;;;;;;15.85;8.23;;;;;;;;;;6272729;28;20047;-76
2024/02/16 06:35:09;;;;;;;23.23;10.63;;;;;;;;;;6247883;28;20083;-77
2024/02/16 06:38:11;;;;;;;17.92;11.45;;;;;;;;;;6251042;28;20040;-78
2024/02/16 06:41:15;;;;;;;14.23;9.13;;;;;;;;;;6261932;28;20065;-79
2024/02/16 06:44:17;;;;;;;47.45;17.73;;;;;;;;;;6241488;28;20056;-77
2024/02/16 06:47:26;;;;;;;41.20;20.88;;;;;;;;;;6267855;28;20103;-79
2024/02/16 06:50:29;;;;;;;26.23;14.18;;;;;;;;;;6266045;28;20044;-77
2024/02/16 06:53:32;;;;;;;25.55;14.25;;;;;;;;;;6246835;28;20056;-77
2024/02/16 06:56:35;;;;;;;23.65;14.18;;;;;;;;;;6262491;28;20106;-77
2024/02/16 06:59:37;;;;;;;26.73;14.57;;;;;;;;;;6274288;28;20052;-77
2024/02/16 07:02:41;;;;;;;24.25;14.82;;;;;;;;;;6265802;28;20051;-76
2024/02/16 07:05:43;;;;;;;29.80;17.20;;;;;;;;;;6262217;28;20047;-77
2024/02/16 07:08:45;;;;;;;25.52;15.35;;;;;;;;;;6263971;28;20059;-76
2024/02/16 07:11:50;;;;;;;27.00;14.95;;;;;;;;;;6282278;28;20186;-77
2024/02/16 07:14:55;;;;;;;25.75;13.75;;;;;;;;;;6270458;28;20059;-77
2024/02/16 07:17:57;;;;;;;29.58;16.30;;;;;;;;;;6280884;28;20426;-77
2024/02/16 07:20:59;;;;;;;26.10;14.43;;;;;;;;;;6263885;28;20059;-76
2024/02/16 07:24:04;;;;;;;22.75;13.93;;;;;;;;;;6278632;28;20048;-78
2024/02/16 07:27:06;;;;;;;25.17;14.63;;;;;;;;;;6279827;28;20052;-75
2024/02/16 07:30:10;;;;;;;22.40;13.70;;;;;;;;;;6233721;28;20048;-75
2024/02/16 07:33:13;;;;;;;29.70;16.08;;;;;;;;;;6275518;28;20036;-76
2024/02/16 07:36:17;;;;;;;25.88;14.70;;;;;;;;;;6261468;28;20071;-77
2024/02/16 07:39:22;;;;;;;25.15;16.17;;;;;;;;;;6243053;28;20063;-77
2024/02/16 07:42:25;;;;;;;24.80;13.65;;;;;;;;;;6260182;28;20040;-77
2024/02/16 07:45:28;;;;;;;18.05;11.48;;;;;;;;;;6260778;28;20493;-77
2024/02/16 07:48:31;;;;;;;18.52;11.32;;;;;;;;;;6285524;28;20056;-77
2024/02/16 07:51:34;;;;;;;22.80;11.48;;;;;;;;;;6286140;28;20796;-76
2024/02/16 07:54:36;;;;;;;19.95;12.27;;;;;;;;;;6258704;28;20086;-77
2024/02/16 07:57:38;;;;;;;18.40;11.48;;;;;;;;;;6276718;28;20075;-77
2024/02/16 08:00:40;;;;;;;20.45;12.32;;;;;;;;;;6242797;28;20044;-76
2024/02/16 08:03:43;;;;;;;20.70;12.68;;;;;;;;;;6224847;28;20061;-76
2024/02/16 08:06:46;;;;;;;20.15;11.05;;;;;;;;;;6228935;28;20143;-77
2024/02/16 08:09:49;;;;;;;19.35;11.40;;;;;;;;;;6245574;28;20590;-76
2024/02/16 08:12:52;;;;;;;21.38;12.65;;;;;;;;;;6246757;28;20032;-76
2024/02/16 08:15:56;;;;;;;19.70;11.40;;;;;;;;;;6268049;28;20044;-76
2024/02/16 08:18:58;;;;;;;17.92;10.80;;;;;;;;;;6277713;28;20056;-76
2024/02/16 08:22:06;;;;;;;22.90;11.32;;;;;;;;;;6272031;28;20036;-77
2024/02/16 08:25:08;;;;;;;17.85;11.50;;;;;;;;;;6247205;28;20074;-76
2024/02/16 08:28:10;;;;;;;15.45;10.80;;;;;;;;;;6257040;28;20052;-76
2024/02/16 08:31:17;;;;;;;20.63;11.40;;;;;;;;;;6282764;28;20055;-76
2024/02/16 08:34:22;;;;;;;17.30;10.32;;;;;;;;;;6271670;28;20142;-75
2024/02/16 08:37:25;;;;;;;21.63;12.00;;;;;;;;;;6260551;28;20522;-76
2024/02/16 08:40:28;;;;;;;20.83;11.88;;;;;;;;;;6262279;28;20056;-77
2024/02/16 08:43:31;;;;;;;23.10;11.38;;;;;;;;;;6276712;28;20067;-76
2024/02/16 08:46:33;;;;;;;17.25;11.35;;;;;;;;;;6254319;28;20553;-77
2024/02/16 08:49:37;;;;;;;16.73;9.80;;;;;;;;;;6240754;28;20438;-76
2024/02/16 08:52:40;;;;;;;20.38;12.82;;;;;;;;;;6251080;28;20116;-76
2024/02/16 08:55:42;;;;;;;13.13;8.75;;;;;;;;;;6241671;28;20651;-77
2024/02/16 08:58:45;;;;;;;16.70;10.43;;;;;;;;;;6263139;28;20494;-76
2024/02/16 09:01:47;;;;;;;16.73;10.88;;;;;;;;;;6247193;28;20501;-77
2024/02/16 09:04:50;;;;;;;16.75;10.85;;;;;;;;;;6285009;28;20052;-76
2024/02/16 09:07:52;;;;;;;17.17;10.60;;;;;;;;;;6274498;28;20521;-76
2024/02/16 09:10:54;;;;;;;19.20;9.98;;;;;;;;;;6276177;28;20044;-75
2024/02/16 09:13:57;;;;;;;17.33;8.93;;;;;;;;;;6269814;28;20414;-76
2024/02/16 09:17:00;;;;;;;16.48;10.10;;;;;;;;;;6263572;28;20060;-76
2024/02/16 09:20:04;;;;;;;19.58;10.35;;;;;;;;;;6269705;28;20053;-75
2024/02/16 09:23:08;;;;;;;17.33;10.77;;;;;;;;;;6266096;28;20579;-77
2024/02/16 09:26:10;;;;;;;17.08;9.93;;;;;;;;;;6236612;28;20044;-77
2024/02/16 09:29:14;;;;;;;12.77;9.27;;;;;;;;;;6264718;28;20518;-75
2024/02/16 09:32:16;;;;;;;15.20;9.27;;;;;;;;;;6219938;28;20040;-74
2024/02/16 09:35:18;;;;;;;17.20;10.77;;;;;;;;;;6258869;28;20182;-76
2024/02/16 09:38:20;;;;;;;13.52;6.57;;;;;;;;;;6261783;28;20052;-74
2024/02/16 09:41:22;;;;;;;13.38;8.75;;;;;;;;;;6240510;28;20085;-75
2024/02/16 09:44:26;;;;;;;15.50;8.57;;;;;;;;;;6287589;28;20079;-75
2024/02/16 09:47:32;;;;;;;18.42;9.18;;;;;;;;;;6264736;28;20056;-76
2024/02/16 09:50:36;;;;;;;14.60;8.23;;;;;;;;;;6254728;28;20040;-76
2024/02/16 09:53:38;;;;;;;13.52;8.52;;;;;;;;;;6249733;28;20053;-75
2024/02/16 09:56:41;;;;;;;10.13;7.47;;;;;;;;;;6277167;28;20521;-74
2024/02/16 09:59:44;;;;;;;11.38;8.00;;;;;;;;;;6262440;28;20049;-74
2024/02/16 10:02:46;;;;;;;10.38;6.13;;;;;;;;;;6243389;28;20068;-75
2024/02/16 10:05:49;;;;;;;12.02;7.20;;;;;;;;;;6285793;28;20060;-75
2024/02/16 10:08:57;;;;;;;14.10;8.13;;;;;;;;;;6268125;28;20073;-75
2024/02/16 10:12:00;;;;;;;12.43;8.50;;;;;;;;;;6265182;28;20037;-76
2024/02/16 10:15:04;;;;;;;11.18;7.90;;;;;;;;;;6252104;28;20041;-74
2024/02/16 10:18:07;;;;;;;9.35;6.25;;;;;;;;;;6283335;28;20072;-75
2024/02/16 10:21:09;;;;;;;10.97;7.10;;;;;;;;;;6274362;28;20053;-75
2024/02/16 10:24:14;;;;;;;12.00;6.60;;;;;;;;;;6265327;28;20041;-74
2024/02/16 10:27:19;;;;;;;5.97;4.18;;;;;;;;;;6280132;28;20044;-74
2024/02/16 10:30:22;;;;;;;8.05;5.13;;;;;;;;;;6261768;28;20036;-76
2024/02/16 10:33:27;;;;;;;9.38;5.93;;;;;;;;;;6244249;28;20052;-76
2024/02/16 10:36:32;;;;;;;7.85;4.88;;;;;;;;;;6264740;28;20425;-76
2024/02/16 10:39:35;;;;;;;9.18;5.60;;;;;;;;;;6258122;28;20048;-76
2024/02/16 10:42:38;;;;;;;13.25;7.70;;;;;;;;;;6262386;28;20666;-76
2024/02/16 10:45:47;;;;;;;9.88;6.05;;;;;;;;;;6250253;28;20045;-77
2024/02/16 10:48:49;;;;;;;9.15;5.53;;;;;;;;;;6281437;28;20766;-76
2024/02/16 10:51:57;;;;;;;8.05;5.50;;;;;;;;;;6248455;28;20064;-75
2024/02/16 10:55:00;;;;;;;13.35;4.63;;;;;;;;;;6263486;28;20049;-76
2024/02/16 10:58:02;;;;;;;10.77;5.15;;;;;;;;;;6265553;28;20733;-75
2024/02/16 11:01:13;;;;;;;6.97;4.25;;;;;;;;;;6276899;28;20041;-76
2024/02/16 11:04:18;;;;;;;7.43;4.28;;;;;;;;;;6225974;28;20044;-76
2024/02/16 11:07:21;;;;;;;9.27;4.43;;;;;;;;;;6259651;28;20051;-75
2024/02/16 11:10:23;;;;;;;6.43;3.83;;;;;;;;;;6281439;28;20753;-76
2024/02/16 11:13:26;;;;;;;5.97;3.67;;;;;;;;;;6247954;28;20051;-73
2024/02/16 11:16:29;;;;;;;8.23;5.07;;;;;;;;;;6251761;28;20230;-73
2024/02/16 11:19:33;;;;;;;6.47;3.97;;;;;;;;;;6251597;28;20049;-76
2024/02/16 11:22:38;;;;;;;9.55;5.30;;;;;;;;;;6229162;28;20056;-76
2024/02/16 11:25:40;;;;;;;6.68;4.57;;;;;;;;;;6242747;28;20061;-76
2024/02/16 11:28:42;;;;;;;6.78;3.83;;;;;;;;;;6246026;28;20055;-76
2024/02/16 11:31:45;;;;;;;6.95;4.65;;;;;;;;;;6239519;28;20045;-76
2024/02/16 11:34:48;;;;;;;7.43;4.15;;;;;;;;;;6265526;28;20135;-75
2024/02/16 11:37:51;;;;;;;5.88;4.55;;;;;;;;;;6257997;28;20048;-75
2024/02/16 11:40:59;;;;;;;7.90;4.50;;;;;;;;;;6243383;28;20181;-75
2024/02/16 11:44:01;;;;;;;5.45;3.58;;;;;;;;;;6242488;28;20044;-75
2024/02/16 11:47:06;;;;;;;7.38;4.53;;;;;;;;;;6254323;28;20056;-74
2024/02/16 11:50:12;;;;;;;6.28;3.80;;;;;;;;;;6243646;28;20040;-74
2024/02/16 11:53:19;;;;;;;7.40;4.85;;;;;;;;;;6232491;28;20766;-75
2024/02/16 11:56:25;;;;;;;7.85;3.97;;;;;;;;;;6259408;28;20841;-75
2024/02/16 11:59:28;;;;;;;6.80;4.05;;;;;;;;;;6245788;28;20057;-75
2024/02/16 12:02:30;;;;;;;8.05;4.35;;;;;;;;;;6249694;28;20048;-75
2024/02/16 12:05:34;;;;;;;6.57;4.57;;;;;;;;;;6251185;28;20068;-75
2024/02/16 12:08:37;;;;;;;9.05;3.70;;;;;;;;;;6254673;28;20106;-75
2024/02/16 12:11:40;;;;;;;5.40;3.92;;;;;;;;;;6266011;28;20052;-74
2024/02/16 12:14:42;;;;;;;6.57;4.05;;;;;;;;;;6245447;28;20048;-74
2024/02/16 12:17:45;;;;;;;5.00;3.53;;;;;;;;;;6231799;28;20053;-74
2024/02/16 12:21:09;;;;;;;5.57;3.30;;;;;;;;;;6284379;28;20260;-74
2024/02/16 12:24:11;;;;;;;7.45;4.40;;;;;;;;;;6252062;28;20039;-75
2024/02/16 12:27:14;;;;;;;6.43;3.63;;;;;;;;;;6301187;28;20048;-75
2024/02/16 12:30:16;;;;;;;5.10;2.75;;;;;;;;;;6266403;28;20059;-75
2024/02/16 12:33:21;;;;;;;6.93;4.65;;;;;;;;;;6259891;28;20066;-75
2024/02/16 12:36:23;;;;;;;6.60;4.28;;;;;;;;;;6231727;28;20048;-75
2024/02/16 12:39:25;;;;;;;7.47;3.17;;;;;;;;;;6249276;28;20526;-75
2024/02/16 12:42:27;;;;;;;8.50;4.45;;;;;;;;;;6279084;28;20048;-75
2024/02/16 12:45:31;;;;;;;5.78;3.30;;;;;;;;;;6239991;28;20052;-74
2024/02/16 12:48:34;;;;;;;6.60;3.88;;;;;;;;;;6261692;28;20521;-75
2024/02/16 12:51:36;;;;;;;7.47;4.00;;;;;;;;;;6263472;28;20509;-75
2024/02/16 12:54:38;;;;;;;6.10;3.83;;;;;;;;;;6254583;28;20620;-76
2024/02/16 12:57:41;;;;;;;8.50;4.20;;;;;;;;;;6260854;28;20055;-76
2024/02/16 13:00:43;;;;;;;9.00;4.30;;;;;;;;;;6264848;28;20040;-76
2024/02/16 13:03:47;;;;;;;41.08;18.90;;;;;;;;;;6276878;28;20045;-75
2024/02/16 13:06:52;;;;;;;7.38;3.55;;;;;;;;;;6263233;28;20072;-76
2024/02/16 13:09:56;;;;;;;6.03;3.90;;;;;;;;;;6280087;28;20033;-75
2024/02/16 13:12:59;;;;;;;7.70;3.33;;;;;;;;;;6278702;28;20039;-75
2024/02/16 13:16:03;;;;;;;18.48;11.32;;;;;;;;;;6278191;28;20040;-76
2024/02/16 13:19:05;;;;;;;5.60;3.88;;;;;;;;;;6272963;28;20593;-76
2024/02/16 13:22:07;;;;;;;5.57;3.50;;;;;;;;;;6265285;28;20057;-76
2024/02/16 13:25:10;;;;;;;5.57;3.45;;;;;;;;;;6263947;28;20049;-76
2024/02/16 13:28:13;;;;;;;5.40;3.40;;;;;;;;;;6274671;28;20058;-76
2024/02/16 13:31:16;;;;;;;6.63;3.83;;;;;;;;;;6262512;28;20048;-76
2024/02/16 13:34:19;;;;;;;3.65;2.30;;;;;;;;;;6241023;28;20049;-76
2024/02/16 13:37:24;;;;;;;5.47;3.55;;;;;;;;;;6260861;28;20052;-76
2024/02/16 13:40:27;;;;;;;5.88;3.17;;;;;;;;;;6271997;28;20048;-76
2024/02/16 13:43:29;;;;;;;7.13;3.50;;;;;;;;;;6248067;28;20048;-76
2024/02/16 13:46:32;;;;;;;5.63;3.33;;;;;;;;;;6256138;28;20056;-76
2024/02/16 13:49:36;;;;;;;4.30;3.28;;;;;;;;;;6235792;28;20056;-76
2024/02/16 13:52:38;;;;;;;5.88;3.55;;;;;;;;;;6259778;28;20542;-76
2024/02/16 13:55:43;;;;;;;9.55;3.85;;;;;;;;;;6281607;28;20544;-76
2024/02/16 13:58:47;;;;;;;4.85;2.80;;;;;;;;;;6259057;28;20047;-76
2024/02/16 14:01:50;;;;;;;6.45;3.92;;;;;;;;;;6271335;28;20041;-76
2024/02/16 14:04:52;;;;;;;4.75;3.33;;;;;;;;;;6245937;28;20165;-76
2024/02/16 14:07:56;;;;;;;6.25;2.80;;;;;;;;;;6254780;28;20052;-76
2024/02/16 14:11:02;;;;;;;5.40;2.95;;;;;;;;;;6245807;28;20045;-76
2024/02/16 14:14:05;;;;;;;4.57;2.83;;;;;;;;;;6257468;28;20048;-76
2024/02/16 14:17:07;;;;;;;6.40;3.00;;;;;;;;;;6280590;28;20044;-76
2024/02/16 14:20:10;;;;;;;9.02;2.45;;;;;;;;;;6281141;28;20090;-76
2024/02/16 14:23:13;;;;;;;4.97;3.90;;;;;;;;;;6230507;28;20723;-76
2024/02/16 14:26:15;;;;;;;6.90;2.92;;;;;;;;;;6257493;28;20117;-77
2024/02/16 14:29:19;;;;;;;4.63;2.95;;;;;;;;;;6286176;28;20048;-77
2024/02/16 14:32:21;;;;;;;4.90;2.63;;;;;;;;;;6257936;28;20059;-77
2024/02/16 14:35:23;;;;;;;4.68;2.92;;;;;;;;;;6291748;28;20073;-78
2024/02/16 14:38:27;;;;;;;5.32;2.00;;;;;;;;;;6267497;28;20044;-77
2024/02/16 14:41:31;;;;;;;4.43;3.05;;;;;;;;;;6264406;28;20442;-77
2024/02/16 14:44:33;;;;;;;4.63;2.75;;;;;;;;;;6279824;28;20063;-77
2024/02/16 14:47:39;;;;;;;4.80;2.72;;;;;;;;;;6263151;28;20044;-77
2024/02/16 14:50:41;;;;;;;4.28;2.60;;;;;;;;;;6250876;28;20146;-77
2024/02/16 14:53:44;;;;;;;4.20;2.10;;;;;;;;;;6278221;28;20048;-76
2024/02/16 14:56:46;;;;;;;4.47;2.67;;;;;;;;;;6295837;28;20060;-77
2024/02/16 14:59:55;;;;;;;3.90;2.38;;;;;;;;;;6277365;28;20044;-77
2024/02/16 15:03:00;;;;;;;6.20;2.65;;;;;;;;;;6273931;28;20143;-77
2024/02/16 15:06:03;;;;;;;4.90;2.88;;;;;;;;;;6283683;28;20036;-76
2024/02/16 15:09:06;;;;;;;4.30;1.85;;;;;;;;;;6264085;28;20485;-76
2024/02/16 15:12:09;;;;;;;5.55;2.47;;;;;;;;;;6254611;28;21023;-75
2024/02/16 15:15:12;;;;;;;3.95;2.05;;;;;;;;;;6253095;28;20824;-78
2024/02/16 15:18:15;;;;;;;4.50;2.20;;;;;;;;;;6271738;28;20052;-76
2024/02/16 15:21:17;;;;;;;4.32;2.85;;;;;;;;;;6251418;28;20059;-74
2024/02/16 15:24:20;;;;;;;4.10;2.63;;;;;;;;;;6276390;28;20084;-75
2024/02/16 15:27:22;;;;;;;4.45;2.58;;;;;;;;;;6290386;28;20044;-75
2024/02/16 15:30:24;;;;;;;4.43;3.42;;;;;;;;;;6266734;28;20389;-75
2024/02/16 15:33:27;;;;;;;5.35;2.28;;;;;;;;;;6268570;28;20437;-75
2024/02/16 15:36:29;;;;;;;4.60;2.38;;;;;;;;;;6297070;28;20068;-75
2024/02/16 15:39:31;;;;;;;4.40;2.55;;;;;;;;;;6247651;28;20048;-75
2024/02/16 15:42:35;;;;;;;4.93;2.83;;;;;;;;;;6298605;28;20102;-74
2024/02/16 15:45:42;;;;;;;5.90;2.65;;;;;;;;;;6262958;28;20090;-75
2024/02/16 15:48:46;;;;;;;9.27;3.60;;;;;;;;;;6282998;28;20052;-76
2024/02/16 15:51:49;;;;;;;4.43;2.97;;;;;;;;;;6266194;28;20658;-75
2024/02/16 15:54:52;;;;;;;4.35;2.50;;;;;;;;;;6270070;28;20166;-77
2024/02/16 15:57:54;;;;;;;3.38;2.38;;;;;;;;;;6280498;28;20047;-76
2024/02/16 16:00:56;;;;;;;6.55;2.88;;;;;;;;;;6277795;28;20380;-76
2024/02/16 16:03:59;;;;;;;5.03;2.92;;;;;;;;;;6284156;28;20048;-77
2024/02/16 16:07:03;;;;;;;6.07;3.13;;;;;;;;;;6279584;28;20044;-77
2024/02/16 16:10:06;;;;;;;5.22;2.47;;;;;;;;;;6289487;28;20049;-77
2024/02/16 16:13:09;;;;;;;5.25;2.58;;;;;;;;;;6268616;28;20054;-76
2024/02/16 16:16:15;;;;;;;6.20;3.70;;;;;;;;;;6276833;28;20156;-76
2024/02/16 16:19:17;;;;;;;6.03;3.45;;;;;;;;;;6267326;28;20052;-78
2024/02/16 16:22:20;;;;;;;6.25;3.83;;;;;;;;;;6250861;28;20048;-76
2024/02/16 16:25:22;;;;;;;8.68;2.90;;;;;;;;;;6294116;28;20051;-77
2024/02/16 16:28:25;;;;;;;6.78;3.47;;;;;;;;;;6289710;28;20048;-76
2024/02/16 16:31:29;;;;;;;5.13;2.95;;;;;;;;;;6274119;28;20048;-75
2024/02/16 16:34:36;;;;;;;5.00;3.47;;;;;;;;;;6284311;28;20285;-77
2024/02/16 16:37:39;;;;;;;6.30;3.55;;;;;;;;;;6283511;28;20044;-76
2024/02/16 16:40:41;;;;;;;7.47;2.85;;;;;;;;;;6284624;28;20047;-75
2024/02/16 16:43:44;;;;;;;8.93;4.07;;;;;;;;;;6279089;28;20768;-75
2024/02/16 16:46:47;;;;;;;4.78;3.35;;;;;;;;;;6246324;28;20220;-76
2024/02/16 16:49:49;;;;;;;6.68;3.95;;;;;;;;;;6288238;28;20540;-76
2024/02/16 16:52:52;;;;;;;5.70;3.60;;;;;;;;;;6287895;28;20050;-76
2024/02/16 16:55:55;;;;;;;5.95;3.85;;;;;;;;;;6267937;28;20048;-76
2024/02/16 16:59:01;;;;;;;9.40;4.75;;;;;;;;;;6288877;28;20179;-75
2024/02/16 17:02:05;;;;;;;4.15;2.10;;;;;;;;;;6286941;28;20838;-76
2024/02/16 17:05:08;;;;;;;5.53;3.25;;;;;;;;;;6263157;28;20664;-76
2024/02/16 17:08:10;;;;;;;7.30;5.13;;;;;;;;;;6282589;28;20522;-76
2024/02/16 17:11:13;;;;;;;7.47;5.43;;;;;;;;;;6227821;28;20531;-76
2024/02/16 17:14:17;;;;;;;8.75;6.10;;;;;;;;;;6261084;28;20097;-76
2024/02/16 17:17:22;;;;;;;11.88;5.03;;;;;;;;;;6288671;28;20044;-76
2024/02/16 17:20:26;;;;;;;;;;;;;;;;;;6274527;28;20044;-77
2024/02/16 17:23:34;;;;;;;15.35;9.10;;;;;;;;;;6296119;28;19931;-76
2024/02/16 17:26:37;;;;;;;15.13;8.65;;;;;;;;;;6227497;28;20062;-78
2024/02/16 17:29:45;;;;;;;12.68;7.43;;;;;;;;;;6260298;28;20153;-76
2024/02/16 17:32:50;;;;;;;19.10;11.70;;;;;;;;;;6265002;28;20068;-77
2024/02/16 17:35:54;;;;;;;20.20;13.48;;;;;;;;;;6270869;28;20924;-76
2024/02/16 17:38:56;;;;;;;22.70;16.38;;;;;;;;;;6289627;28;20049;-75
2024/02/16 17:41:59;;;;;;;45.25;24.05;;;;;;;;;;6234356;28;20045;-77
2024/02/16 17:45:06;;;;;;;25.63;13.20;;;;;;;;;;6276197;28;20064;-77
2024/02/16 17:48:10;;;;;;;21.27;13.88;;;;;;;;;;6262652;28;20052;-77
2024/02/16 17:51:13;;;;;;;22.33;12.65;;;;;;;;;;6277240;28;20056;-76
2024/02/16 17:54:15;;;;;;;21.73;13.05;;;;;;;;;;6288514;28;20040;-76
2024/02/16 17:57:20;;;;;;;14.20;8.73;;;;;;;;;;6255088;28;20060;-77
2024/02/16 18:00:24;;;;;;;;;;;;;;;;;;6276255;28;20552;-77
2024/02/16 18:03:27;;;;;;;14.02;7.32;;;;;;;;;;6278619;28;19928;-77